createdAt,value
2019-04-11T00:04:26.163Z,18.63
2019-04-11T00:09:28.377Z,21.30
2019-04-11T00:14:30.363Z,19.97
2019-04-11T00:19:33.570Z,14.70
2019-04-11T00:24:36.764Z,12.37
2019-04-11T00:29:39.066Z,18.75
2019-04-11T00:34:41.018Z,9.83
2019-04-11T00:39:43.721Z,13.23
2019-04-11T00:44:47.982Z,21.75
2019-04-11T00:49:50.447Z,20.90
2019-04-11T00:54:53.218Z,12.50
2019-04-11T00:59:56.492Z,16.15
2019-04-11T01:04:59.248Z,15.05
2019-04-11T01:10:01.489Z,12.10
2019-04-11T01:15:07.510Z,14.15
2019-04-11T01:20:09.669Z,11.78
2019-04-11T01:25:13.233Z,13.43
2019-04-11T01:30:20.735Z,15.98
2019-04-11T01:35:23.509Z,11.15
2019-04-11T01:45:27.724Z,16.10
2019-04-11T01:50:31.073Z,11.50
2019-04-11T01:55:32.986Z,12.37
2019-04-11T02:00:36.972Z,10.83
2019-04-11T02:05:39.124Z,11.25
2019-04-11T02:10:41.281Z,12.45
2019-04-11T02:15:44.202Z,12.30
2019-04-11T02:20:47.310Z,12.93
2019-04-11T02:31:00.117Z,16.90
2019-04-11T02:36:03.230Z,10.53
2019-04-11T02:41:08.595Z,11.55
2019-04-11T02:46:20.422Z,19.85
2019-04-11T02:51:14.680Z,21.68
2019-04-11T02:56:17.491Z,22.27
2019-04-11T03:01:21.984Z,16.30
2019-04-11T03:06:25.835Z,20.32
2019-04-11T03:11:28.074Z,24.47
2019-04-11T03:16:42.731Z,20.30
2019-04-11T03:21:39.123Z,20.37
2019-04-11T03:26:38.326Z,22.35
2019-04-11T03:32:17.042Z,17.87
2019-04-11T03:37:27.319Z,20.75
2019-04-11T03:42:04.133Z,45.00
2019-04-11T03:47:11.320Z,27.32
2019-04-11T03:51:56.613Z,13.43
2019-04-11T03:56:59.273Z,12.03
2019-04-11T04:02:01.367Z,37.73
2019-04-11T04:07:06.794Z,41.02
2019-04-11T04:12:09.534Z,31.80
2019-04-11T04:17:33.005Z,30.27
2019-04-11T04:22:48.079Z,18.53
2019-04-11T04:27:51.275Z,20.23
2019-04-11T04:32:54.614Z,20.25
2019-04-11T04:37:58.840Z,19.25
2019-04-11T04:43:05.058Z,17.35
2019-04-11T04:48:11.046Z,14.47
2019-04-11T04:53:09.302Z,13.00
2019-04-11T04:58:11.294Z,11.00
2019-04-11T05:03:13.617Z,11.27
2019-04-11T05:08:16.555Z,19.75
2019-04-11T05:13:19.464Z,18.12
2019-04-11T05:23:24.059Z,27.87
2019-04-11T05:28:26.274Z,22.63
2019-04-11T05:33:29.343Z,14.03
2019-04-11T05:38:32.802Z,18.92
2019-04-11T05:43:37.330Z,20.43
2019-04-11T05:48:41.143Z,16.45
2019-04-11T05:53:43.771Z,30.02
2019-04-11T05:58:47.367Z,15.55
2019-04-11T06:03:52.039Z,16.00
2019-04-11T06:09:00.362Z,17.65
2019-04-11T06:14:05.176Z,18.92
2019-04-11T06:19:16.469Z,22.75
2019-04-11T06:24:32.609Z,25.88
2019-04-11T06:29:47.971Z,23.20
2019-04-11T06:35:08.288Z,22.80
2019-04-11T06:40:24.894Z,19.30
2019-04-11T06:45:42.188Z,20.37
2019-04-11T06:51:01.843Z,16.35
2019-04-11T06:56:12.518Z,14.07
2019-04-11T07:01:16.490Z,15.13
2019-04-11T07:06:21.648Z,13.95
2019-04-11T07:11:25.611Z,12.98
2019-04-11T07:16:29.444Z,12.18
2019-04-11T07:21:33.332Z,6.70
2019-04-11T07:26:37.491Z,6.05
2019-04-11T07:31:48.327Z,6.92
2019-04-11T07:37:10.457Z,6.22
2019-04-11T07:42:34.172Z,8.17
2019-04-11T07:47:38.423Z,8.38
2019-04-11T07:52:42.593Z,4.95
2019-04-11T07:57:46.902Z,7.78
2019-04-11T08:02:59.800Z,7.20
2019-04-11T08:08:13.362Z,6.95
2019-04-11T08:13:28.950Z,7.33
2019-04-11T08:18:49.339Z,7.00
2019-04-11T08:23:54.171Z,5.80
2019-04-11T08:29:05.052Z,7.05
2019-04-11T08:34:00.606Z,6.95
2019-04-11T08:39:04.852Z,4.67
2019-04-11T08:44:07.783Z,4.70
2019-04-11T08:54:36.071Z,6.58
2019-04-11T08:59:49.379Z,8.85
2019-04-11T09:05:08.449Z,8.68
2019-04-11T09:10:10.039Z,7.70
2019-04-11T09:15:26.629Z,7.95
2019-04-11T09:20:40.152Z,7.58
2019-04-11T09:25:54.987Z,6.15
2019-04-11T09:31:03.593Z,5.83
2019-04-11T09:36:24.399Z,9.23
2019-04-11T09:41:45.029Z,9.18
2019-04-11T09:46:59.122Z,8.03
2019-04-11T09:52:02.986Z,9.68
2019-04-11T09:57:10.067Z,5.35
2019-04-11T10:02:23.348Z,11.15
2019-04-11T10:07:28.139Z,5.90
2019-04-11T10:12:48.811Z,7.15
2019-04-11T10:18:20.134Z,4.87
2019-04-11T10:23:18.830Z,4.85
2019-04-11T10:28:35.722Z,5.58
2019-04-11T10:33:55.463Z,4.75
2019-04-11T10:39:02.866Z,6.17
2019-04-11T10:44:07.644Z,4.28
2019-04-11T10:49:28.446Z,4.47
2019-04-11T10:54:32.513Z,3.55
2019-04-11T10:59:36.441Z,4.67
2019-04-11T11:04:41.012Z,6.67
2019-04-11T11:09:46.207Z,2.20
2019-04-11T11:14:56.163Z,8.15
2019-04-11T11:20:26.702Z,3.95
2019-04-11T11:25:26.834Z,6.03
2019-04-11T11:30:47.434Z,3.12
2019-04-11T11:35:52.081Z,2.67
2019-04-11T11:40:58.979Z,3.58
2019-04-11T11:46:03.146Z,4.50
2019-04-11T11:51:08.716Z,16.93
2019-04-11T11:56:12.135Z,1.37
2019-04-11T12:01:16.019Z,5.92
2019-04-11T12:06:22.255Z,2.02
2019-04-11T12:11:26.271Z,2.37
2019-04-11T12:16:30.346Z,3.45
2019-04-11T12:21:38.857Z,4.53
2019-04-11T12:26:43.221Z,3.90
2019-04-11T12:31:48.629Z,2.92
2019-04-11T12:36:52.960Z,2.62
2019-04-11T12:41:57.259Z,1.55
2019-04-11T12:47:01.536Z,1.67
2019-04-11T12:52:22.688Z,2.35
2019-04-11T12:57:43.435Z,3.52
2019-04-11T13:03:01.104Z,3.05
2019-04-11T13:08:14.422Z,3.08
2019-04-11T13:18:22.127Z,1.22
2019-04-11T13:23:28.599Z,1.37
2019-04-11T13:28:32.266Z,5.40
2019-04-11T13:33:34.328Z,3.45
2019-04-11T13:38:37.615Z,1.00
2019-04-11T13:43:41.674Z,13.62
2019-04-11T13:48:48.152Z,3.83
2019-04-11T13:54:09.149Z,1.37
2019-04-11T13:59:13.342Z,2.80
2019-04-11T14:04:22.964Z,0.80
2019-04-11T14:09:30.566Z,3.52
2019-04-11T14:14:32.913Z,3.22
2019-04-11T14:19:54.823Z,8.88
2019-04-11T14:25:15.537Z,0.93
2019-04-11T14:30:36.235Z,4.70
2019-04-11T14:35:40.111Z,2.85
2019-04-11T14:41:00.976Z,15.35
2019-04-11T14:45:55.971Z,1.87
2019-04-11T14:51:02.953Z,2.95
2019-04-11T14:56:14.105Z,7.75
2019-04-11T15:01:17.077Z,1.67
2019-04-11T15:06:21.011Z,6.15
2019-04-11T15:11:25.003Z,5.03
2019-04-11T15:16:33.037Z,5.28
2019-04-11T15:21:49.364Z,4.12
2019-04-11T15:26:56.689Z,4.47
2019-04-11T15:32:02.186Z,3.05
2019-04-11T15:37:21.665Z,3.52
2019-04-11T15:42:25.610Z,6.45
2019-04-11T15:47:29.661Z,9.75
2019-04-11T15:52:32.111Z,3.83
2019-04-11T15:57:36.221Z,6.10
2019-04-11T16:02:52.746Z,46.65
2019-04-11T16:08:01.692Z,12.33
2019-04-11T16:13:09.015Z,31.27
2019-04-11T16:18:29.955Z,13.28
2019-04-11T16:23:34.033Z,41.13
2019-04-11T16:28:43.945Z,38.35
2019-04-11T16:33:49.168Z,29.75
2019-04-11T16:39:08.207Z,12.78
2019-04-11T16:44:12.597Z,10.30
2019-04-11T16:49:16.307Z,5.62
2019-04-11T16:54:18.919Z,13.45
2019-04-11T16:59:22.846Z,27.62
2019-04-11T17:04:26.004Z,34.15
2019-04-11T17:09:33.551Z,42.62
2019-04-11T17:14:35.778Z,17.87
2019-04-11T17:19:38.025Z,165.20
2019-04-11T17:24:40.654Z,122.28
2019-04-11T17:29:43.596Z,137.10
2019-04-11T17:34:46.296Z,46.98
2019-04-11T17:39:48.527Z,78.17
2019-04-11T17:44:50.825Z,44.93
2019-04-11T17:49:53.110Z,35.58
2019-04-11T17:54:55.480Z,15.20
2019-04-11T17:59:59.104Z,12.10
2019-04-11T18:05:02.452Z,15.58
2019-04-11T18:10:06.000Z,25.77
2019-04-11T18:15:09.685Z,23.30
2019-04-11T18:20:13.967Z,10.38
2019-04-11T18:25:16.327Z,15.23
2019-04-11T18:30:20.900Z,6.58
2019-04-11T18:35:23.078Z,29.42
2019-04-11T18:40:25.364Z,14.63
2019-04-11T18:45:27.667Z,7.55
2019-04-11T18:50:30.176Z,10.95
2019-04-11T18:55:32.669Z,11.20
2019-04-11T19:00:35.805Z,4.67
2019-04-11T19:05:42.782Z,7.55
2019-04-11T19:10:45.804Z,54.95
2019-04-11T19:15:47.627Z,37.55
2019-04-11T19:20:50.801Z,19.02
2019-04-11T19:25:53.359Z,15.88
2019-04-11T19:30:56.770Z,11.68
2019-04-11T19:35:59.224Z,9.50
2019-04-11T19:41:02.798Z,9.00
2019-04-11T19:46:05.249Z,10.50
2019-04-11T19:51:07.434Z,20.37
2019-04-11T19:56:14.266Z,6.33
2019-04-11T20:01:16.589Z,28.75
2019-04-11T20:06:19.095Z,66.20
2019-04-11T20:11:21.524Z,2.27
2019-04-11T20:16:24.099Z,4.17
2019-04-11T20:21:26.214Z,2.20
2019-04-11T20:26:28.510Z,8.08
2019-04-11T20:31:30.675Z,4.12
2019-04-11T20:36:33.840Z,14.80
2019-04-11T20:41:36.150Z,8.00
2019-04-11T20:46:38.434Z,4.70
2019-04-11T20:51:40.844Z,4.95
2019-04-11T20:56:43.075Z,6.87
2019-04-11T21:01:45.605Z,13.38
2019-04-11T21:06:48.067Z,6.85
2019-04-11T21:11:50.336Z,5.42
2019-04-11T21:16:52.629Z,4.75
2019-04-11T21:21:55.008Z,5.33
2019-04-11T21:26:59.186Z,9.20
2019-04-11T21:32:01.673Z,4.30
2019-04-11T21:42:06.652Z,6.20
2019-04-11T21:47:08.959Z,5.10
2019-04-11T21:52:12.312Z,6.40
2019-04-11T21:57:15.036Z,7.53
2019-04-11T22:02:17.548Z,6.93
2019-04-11T22:07:19.849Z,4.87
2019-04-11T22:12:21.801Z,3.83
2019-04-11T22:17:24.040Z,5.37
2019-04-11T22:22:26.062Z,3.40
2019-04-11T22:27:28.100Z,5.47
2019-04-11T22:32:31.297Z,3.63
2019-04-11T22:37:33.294Z,3.90
2019-04-11T22:42:35.366Z,3.77
2019-04-11T22:47:38.379Z,4.37
2019-04-11T22:52:42.313Z,5.25
2019-04-11T22:57:44.869Z,6.35
2019-04-11T23:02:48.979Z,6.00
2019-04-11T23:07:51.024Z,4.97
2019-04-11T23:12:53.283Z,4.03
2019-04-11T23:17:55.297Z,5.13
2019-04-11T23:22:57.387Z,6.43
2019-04-11T23:27:59.471Z,3.70
2019-04-11T23:33:01.781Z,5.10
2019-04-11T23:38:03.963Z,19.67
2019-04-11T23:43:07.152Z,8.13
2019-04-11T23:48:10.510Z,5.10
2019-04-11T23:53:12.562Z,11.08
2019-04-11T23:58:14.615Z,12.50
